Time;durP1;ratioP1;P1;durP2;ratioP2;P2;SDS_P1;SDS_P2;PMS_P1;PMS_P2;Temp;Humidity;BMP_temperature;BMP_pressure;BME280_temperature;BME280_humidity;BME280_pressure;Samples;Min_cycle;Max_cycle;Signal;HPM_P1;HPM_P2
2024/01/17 00:00:25;;;;;;;;;;;19.20;39.60;;;;;;5071948;28;19927;-52
2024/01/17 00:02:52;;;;;;;;;;;19.20;39.60;;;;;;5055169;28;19970;-53
2024/01/17 00:05:19;;;;;;;;;;;19.10;39.50;;;;;;5071603;28;19931;-54
2024/01/17 00:07:47;;;;;;;;;;;19.20;39.60;;;;;;5054566;28;19928;-55
2024/01/17 00:10:14;;;;;;;;;;;19.10;39.40;;;;;;5071841;28;19924;-56
2024/01/17 00:12:41;;;;;;;;;;;19.10;39.40;;;;;;5068788;28;19954;-54
2024/01/17 00:15:08;;;;;;;;;;;19.10;39.40;;;;;;5053992;28;19920;-53
2024/01/17 00:17:35;;;;;;;;;;;19.10;39.40;;;;;;5072179;28;19936;-53
2024/01/17 00:20:02;;;;;;;;;;;19.10;39.40;;;;;;5053418;28;19920;-59
2024/01/17 00:22:29;;;;;;;;;;;19.10;39.30;;;;;;5055322;28;19993;-57
2024/01/17 00:24:57;;;;;;;;;;;19.10;39.30;;;;;;5038601;28;19921;-55
2024/01/17 00:27:26;;;;;;;;;;;19.10;39.40;;;;;;5071946;28;19994;-58
2024/01/17 00:29:57;;;;;;;;;;;19.10;39.30;;;;;;5070746;28;19921;-52
2024/01/17 00:32:23;;;;;;;;;;;19.10;39.30;;;;;;5034352;28;19960;-57
2024/01/17 00:34:51;;;;;;;;;;;19.10;39.30;;;;;;5071875;28;19924;-51
2024/01/17 00:37:17;;;;;;;;;;;19.10;39.30;;;;;;5071132;28;19924;-56
2024/01/17 00:39:44;;;;;;;;;;;19.10;39.30;;;;;;5071912;28;20300;-53
2024/01/17 00:42:12;;;;;;;;;;;19.10;39.20;;;;;;5054345;28;19920;-55
2024/01/17 00:44:39;;;;;;;;;;;19.10;39.20;;;;;;5055627;28;19974;-54
2024/01/17 00:47:06;;;;;;;;;;;19.10;39.10;;;;;;5054397;28;19925;-54
2024/01/17 00:49:33;;;;;;;;;;;19.10;39.10;;;;;;5053538;28;19930;-55
2024/01/17 00:52:00;;;;;;;;;;;19.10;39.10;;;;;;5054226;28;19920;-55
2024/01/17 00:54:27;;;;;;;;;;;19.10;39.00;;;;;;5054581;28;19974;-54
2024/01/17 00:56:54;;;;;;;;;;;19.10;39.00;;;;;;5054361;28;20063;-56
2024/01/17 00:59:22;;;;;;;;;;;19.10;39.00;;;;;;5052628;28;19928;-56
2024/01/17 01:01:48;;;;;;;;;;;19.10;39.00;;;;;;5070067;28;20293;-57
2024/01/17 01:04:15;;;;;;;;;;;19.00;39.50;;;;;;5071374;28;19928;-53
2024/01/17 01:06:42;;;;;;;;;;;19.00;38.80;;;;;;5050631;28;19929;-57
2024/01/17 01:09:09;;;;;;;;;;;19.00;38.90;;;;;;5054190;28;19931;-53
2024/01/17 01:11:36;;;;;;;;;;;19.00;38.90;;;;;;5053870;28;19939;-54
2024/01/17 01:14:03;;;;;;;;;;;19.00;38.90;;;;;;5070593;28;19921;-59
2024/01/17 01:16:31;;;;;;;;;;;19.00;38.90;;;;;;5069931;28;19927;-54
2024/01/17 01:18:58;;;;;;;;;;;19.00;38.90;;;;;;5060041;28;19925;-54
2024/01/17 01:21:25;;;;;;;;;;;19.00;39.00;;;;;;5054714;28;19920;-56
2024/01/17 01:23:51;;;;;;;;;;;19.00;39.00;;;;;;5052591;28;19974;-57
2024/01/17 01:26:18;;;;;;;;;;;19.00;39.00;;;;;;5070963;28;19932;-56
2024/01/17 01:28:45;;;;;;;;;;;19.00;39.00;;;;;;5056303;28;20137;-55
2024/01/17 01:31:11;;;;;;;;;;;19.00;39.00;;;;;;5053362;28;19978;-54
2024/01/17 01:33:39;;;;;;;;;;;19.00;38.90;;;;;;5060320;28;19931;-54
2024/01/17 01:36:06;;;;;;;;;;;19.00;38.90;;;;;;5053323;28;19928;-57
2024/01/17 01:38:33;;;;;;;;;;;19.00;38.90;;;;;;5055779;28;19924;-56
2024/01/17 01:41:00;;;;;;;;;;;19.00;38.90;;;;;;5071035;28;19924;-56
2024/01/17 01:43:27;;;;;;;;;;;19.00;38.90;;;;;;5060745;28;19932;-55
2024/01/17 01:45:59;;;;;;;;;;;19.00;38.80;;;;;;5053625;28;19928;-56
2024/01/17 01:48:25;;;;;;;;;;;19.00;38.80;;;;;;5053364;28;19927;-53
2024/01/17 01:50:54;;;;;;;;;;;19.00;39.40;;;;;;5050731;28;19920;-54
2024/01/17 01:53:20;;;;;;;;;;;19.00;38.80;;;;;;5070734;28;20161;-55
2024/01/17 01:55:47;;;;;;;;;;;19.00;38.80;;;;;;5053267;28;19928;-55
2024/01/17 01:58:14;;;;;;;;;;;19.00;38.80;;;;;;5036611;28;19931;-56
2024/01/17 02:00:40;;;;;;;;;;;19.00;38.80;;;;;;5052578;28;20033;-54
2024/01/17 02:03:06;;;;;;;;;;;19.00;38.70;;;;;;5070113;28;20016;-56
2024/01/17 02:05:33;;;;;;;;;;;19.00;38.70;;;;;;5052363;28;19920;-54
2024/01/17 02:08:01;;;;;;;;;;;19.00;38.70;;;;;;5053123;28;19942;-53
2024/01/17 02:10:28;;;;;;;;;;;19.00;38.70;;;;;;5036096;28;19920;-52
2024/01/17 02:12:55;;;;;;;;;;;19.00;38.70;;;;;;5052341;28;20298;-56
2024/01/17 02:15:22;;;;;;;;;;;19.00;38.70;;;;;;5070960;28;19927;-54
2024/01/17 02:17:49;;;;;;;;;;;19.00;38.70;;;;;;5056547;28;19939;-57
2024/01/17 02:20:15;;;;;;;;;;;19.00;38.70;;;;;;5077162;28;19920;-56
2024/01/17 02:22:42;;;;;;;;;;;19.00;38.70;;;;;;5069935;28;19931;-53
2024/01/17 02:25:10;;;;;;;;;;;19.00;38.60;;;;;;5052814;28;19986;-53
2024/01/17 02:27:38;;;;;;;;;;;19.00;38.60;;;;;;5052263;28;19927;-55
2024/01/17 02:30:06;;;;;;;;;;;18.90;38.50;;;;;;5059495;28;19959;-52
2024/01/17 02:32:33;;;;;;;;;;;19.00;38.60;;;;;;5069984;28;19963;-55
2024/01/17 02:35:00;;;;;;;;;;;18.90;38.50;;;;;;5052650;28;19990;-54
2024/01/17 02:37:27;;;;;;;;;;;18.90;38.50;;;;;;5070303;28;20046;-54
2024/01/17 02:39:53;;;;;;;;;;;19.00;38.50;;;;;;5071705;28;19921;-54
2024/01/17 02:42:21;;;;;;;;;;;19.00;38.60;;;;;;5055186;28;19921;-54
2024/01/17 02:44:48;;;;;;;;;;;19.00;38.50;;;;;;5061503;28;19931;-57
2024/01/17 02:47:15;;;;;;;;;;;19.00;38.50;;;;;;5074535;28;19924;-55
2024/01/17 02:49:42;;;;;;;;;;;19.00;38.50;;;;;;5064466;28;19921;-57
2024/01/17 02:52:08;;;;;;;;;;;19.00;38.40;;;;;;5048253;28;19933;-56
2024/01/17 02:54:35;;;;;;;;;;;19.00;38.40;;;;;;5074116;28;19920;-52
2024/01/17 02:57:02;;;;;;;;;;;19.00;38.40;;;;;;5081460;28;19920;-53
2024/01/17 02:59:30;;;;;;;;;;;19.00;38.40;;;;;;5055642;28;19927;-50
2024/01/17 03:01:58;;;;;;;;;;;19.00;38.30;;;;;;5063747;28;20003;-54
2024/01/17 03:04:24;;;;;;;;;;;19.00;38.30;;;;;;5073440;28;20429;-56
2024/01/17 03:06:52;;;;;;;;;;;19.00;38.30;;;;;;5055954;28;20259;-55
2024/01/17 03:09:19;;;;;;;;;;;18.90;38.20;;;;;;5080413;28;19935;-54
2024/01/17 03:11:46;;;;;;;;;;;18.90;38.20;;;;;;5055332;28;19924;-55
2024/01/17 03:14:13;;;;;;;;;;;18.90;38.20;;;;;;5055689;28;19932;-54
2024/01/17 03:16:41;;;;;;;;;;;18.90;38.20;;;;;;5071723;28;19928;-54
2024/01/17 03:19:08;;;;;;;;;;;18.90;38.20;;;;;;5055030;28;19928;-56
2024/01/17 03:21:34;;;;;;;;;;;18.90;38.10;;;;;;5078028;28;19924;-55
2024/01/17 03:24:01;;;;;;;;;;;18.90;38.10;;;;;;5054251;28;19931;-52
2024/01/17 03:26:28;;;;;;;;;;;18.90;38.10;;;;;;5035347;28;20031;-56
2024/01/17 03:28:55;;;;;;;;;;;18.90;38.10;;;;;;5055401;28;19940;-54
2024/01/17 03:31:21;;;;;;;;;;;18.90;38.10;;;;;;5063559;28;19920;-57
2024/01/17 03:33:49;;;;;;;;;;;18.90;38.10;;;;;;5057941;28;19932;-55
2024/01/17 03:36:16;;;;;;;;;;;18.90;38.10;;;;;;5055493;28;19974;-52
2024/01/17 03:38:43;;;;;;;;;;;18.90;38.20;;;;;;5055837;28;19943;-50
2024/01/17 03:41:09;;;;;;;;;;;18.90;38.10;;;;;;5054127;28;19920;-57
2024/01/17 03:43:38;;;;;;;;;;;18.90;38.10;;;;;;5053378;28;20852;-53
2024/01/17 03:46:05;;;;;;;;;;;18.90;38.10;;;;;;5073098;28;19924;-55
2024/01/17 03:48:31;;;;;;;;;;;18.90;38.10;;;;;;5055212;28;19981;-55
2024/01/17 03:50:59;;;;;;;;;;;18.90;38.10;;;;;;5055079;28;19928;-55
2024/01/17 03:53:26;;;;;;;;;;;18.90;38.10;;;;;;5054605;28;19946;-58
2024/01/17 03:55:53;;;;;;;;;;;18.90;38.00;;;;;;5054736;28;19925;-55
2024/01/17 03:58:19;;;;;;;;;;;18.90;38.00;;;;;;5053053;28;19928;-54
2024/01/17 04:00:46;;;;;;;;;;;18.90;38.00;;;;;;5035159;28;19951;-54
2024/01/17 04:03:13;;;;;;;;;;;18.90;38.00;;;;;;5049219;28;19925;-52
2024/01/17 04:05:40;;;;;;;;;;;18.90;38.00;;;;;;5058713;28;19928;-54
2024/01/17 04:08:08;;;;;;;;;;;18.90;38.00;;;;;;5071917;28;20405;-57
2024/01/17 04:10:35;;;;;;;;;;;18.90;38.00;;;;;;5056854;28;19921;-52
2024/01/17 04:13:02;;;;;;;;;;;18.90;37.90;;;;;;5049177;28;19970;-54
2024/01/17 04:15:29;;;;;;;;;;;18.90;38.00;;;;;;5054458;28;20006;-57
2024/01/17 04:17:55;;;;;;;;;;;18.90;37.90;;;;;;5054525;28;19924;-54
2024/01/17 04:20:22;;;;;;;;;;;18.90;37.90;;;;;;5062050;28;19977;-55
2024/01/17 04:22:49;;;;;;;;;;;18.90;37.90;;;;;;5053801;28;19925;-57
2024/01/17 04:25:17;;;;;;;;;;;18.90;37.90;;;;;;5054802;28;19921;-57
2024/01/17 04:27:43;;;;;;;;;;;18.90;37.90;;;;;;5054754;28;19939;-52
2024/01/17 04:30:11;;;;;;;;;;;18.90;37.90;;;;;;5053568;28;19928;-55
2024/01/17 04:32:38;;;;;;;;;;;18.90;37.80;;;;;;5053769;28;19950;-54
2024/01/17 04:35:05;;;;;;;;;;;18.90;37.80;;;;;;5052098;28;20076;-53
2024/01/17 04:37:32;;;;;;;;;;;18.90;37.80;;;;;;5066496;28;19960;-54
2024/01/17 04:39:59;;;;;;;;;;;18.90;37.80;;;;;;5060233;28;19927;-56
2024/01/17 04:42:27;;;;;;;;;;;18.90;37.80;;;;;;5071013;28;20309;-56
2024/01/17 04:44:54;;;;;;;;;;;18.90;37.70;;;;;;5072275;28;19966;-55
2024/01/17 04:47:20;;;;;;;;;;;18.90;37.70;;;;;;5072172;28;19924;-52
2024/01/17 04:49:47;;;;;;;;;;;18.90;37.70;;;;;;5054337;28;19970;-52
2024/01/17 04:52:16;;;;;;;;;;;18.80;37.60;;;;;;5045847;28;19971;-55
2024/01/17 04:54:42;;;;;;;;;;;18.90;37.70;;;;;;5058356;28;19927;-54
2024/01/17 04:57:09;;;;;;;;;;;18.90;37.70;;;;;;5053165;28;19981;-56
2024/01/17 04:59:38;;;;;;;;;;;18.90;37.60;;;;;;5065223;28;19929;-55
2024/01/17 05:02:04;;;;;;;;;;;18.80;37.50;;;;;;5069619;28;19969;-53
2024/01/17 05:04:31;;;;;;;;;;;18.90;37.60;;;;;;5045578;28;19921;-54
2024/01/17 05:06:58;;;;;;;;;;;18.90;37.60;;;;;;5033921;28;19921;-58
2024/01/17 05:09:25;;;;;;;;;;;18.90;37.60;;;;;;5033746;28;19921;-57
2024/01/17 05:11:52;;;;;;;;;;;18.90;37.60;;;;;;5038531;28;20513;-54
2024/01/17 05:14:18;;;;;;;;;;;18.80;37.50;;;;;;5049881;28;19927;-52
2024/01/17 05:16:46;;;;;;;;;;;18.80;37.50;;;;;;5049841;28;20013;-59
2024/01/17 05:19:13;;;;;;;;;;;18.80;37.40;;;;;;5067624;28;19950;-57
2024/01/17 05:21:40;;;;;;;;;;;18.80;37.40;;;;;;5070747;28;19966;-54
2024/01/17 05:24:07;;;;;;;;;;;18.80;37.40;;;;;;5053754;28;19947;-54
2024/01/17 05:26:33;;;;;;;;;;;18.80;37.40;;;;;;5071363;28;19927;-55
2024/01/17 05:29:00;;;;;;;;;;;18.80;37.40;;;;;;5051800;28;19982;-53
2024/01/17 05:31:27;;;;;;;;;;;18.80;37.40;;;;;;5049639;28;19928;-54
2024/01/17 05:33:55;;;;;;;;;;;18.80;37.50;;;;;;5059137;28;19932;-57
2024/01/17 05:36:22;;;;;;;;;;;18.80;37.50;;;;;;5053335;28;19921;-57
2024/01/17 05:38:48;;;;;;;;;;;18.80;37.50;;;;;;5071302;28;20323;-59
2024/01/17 05:41:15;;;;;;;;;;;18.80;37.40;;;;;;5052909;28;19925;-55
2024/01/17 05:43:42;;;;;;;;;;;18.80;37.40;;;;;;5049294;28;19978;-54
2024/01/17 05:46:09;;;;;;;;;;;18.80;37.40;;;;;;5070577;28;19920;-57
2024/01/17 05:48:35;;;;;;;;;;;18.80;37.40;;;;;;5071189;28;19924;-55
2024/01/17 05:51:05;;;;;;;;;;;18.80;37.40;;;;;;5063139;28;19933;-53
2024/01/17 05:53:32;;;;;;;;;;;18.80;37.40;;;;;;5070741;28;19920;-55
2024/01/17 05:55:59;;;;;;;;;;;18.80;37.40;;;;;;5070618;28;19924;-54
2024/01/17 05:58:25;;;;;;;;;;;18.80;37.40;;;;;;5055091;28;20005;-55
2024/01/17 06:00:52;;;;;;;;;;;18.80;38.00;;;;;;5063396;28;19921;-57
2024/01/17 06:03:19;;;;;;;;;;;18.80;37.40;;;;;;5052455;28;20308;-57
2024/01/17 06:05:45;;;;;;;;;;;18.80;37.40;;;;;;5057150;28;19921;-56
2024/01/17 06:08:13;;;;;;;;;;;18.80;37.40;;;;;;5061859;28;19924;-57
2024/01/17 06:10:40;;;;;;;;;;;18.80;37.40;;;;;;5070450;28;19921;-57
2024/01/17 06:13:08;;;;;;;;;;;18.80;37.40;;;;;;5052537;28;19924;-54
2024/01/17 06:15:35;;;;;;;;;;;18.80;37.40;;;;;;5062265;28;20046;-53
2024/01/17 06:18:01;;;;;;;;;;;18.80;37.40;;;;;;5074627;28;20250;-54
2024/01/17 06:20:28;;;;;;;;;;;18.80;37.30;;;;;;5057065;28;19920;-58
2024/01/17 06:22:55;;;;;;;;;;;18.80;37.30;;;;;;5073743;28;19920;-56
2024/01/17 06:25:23;;;;;;;;;;;18.80;37.40;;;;;;5060724;28;19947;-55
2024/01/17 06:27:50;;;;;;;;;;;18.80;37.40;;;;;;5053038;28;19920;-55
2024/01/17 06:30:17;;;;;;;;;;;18.80;37.30;;;;;;5074713;28;19927;-52
2024/01/17 06:32:43;;;;;;;;;;;18.80;37.30;;;;;;5052167;28;19926;-54
2024/01/17 06:35:11;;;;;;;;;;;18.80;37.30;;;;;;5056544;28;19977;-57
2024/01/17 06:37:38;;;;;;;;;;;18.80;37.30;;;;;;5073877;28;19921;-53
2024/01/17 06:40:05;;;;;;;;;;;18.80;37.30;;;;;;5074489;28;19947;-57
2024/01/17 06:42:33;;;;;;;;;;;18.80;37.30;;;;;;5053791;28;19956;-56
2024/01/17 06:45:00;;;;;;;;;;;18.80;37.30;;;;;;5073805;28;19926;-55
2024/01/17 06:47:27;;;;;;;;;;;18.80;37.20;;;;;;5059509;28;19925;-54
2024/01/17 06:49:54;;;;;;;;;;;18.80;37.20;;;;;;5036582;28;19921;-55
2024/01/17 06:52:20;;;;;;;;;;;18.80;37.20;;;;;;5072094;28;19925;-54
2024/01/17 06:54:47;;;;;;;;;;;18.80;37.20;;;;;;5060408;28;19928;-55
2024/01/17 06:57:14;;;;;;;;;;;18.80;37.20;;;;;;5066329;28;20018;-55
2024/01/17 06:59:42;;;;;;;;;;;18.80;37.20;;;;;;5056401;28;19920;-57
2024/01/17 07:02:09;;;;;;;;;;;18.80;37.10;;;;;;5058291;28;19921;-51
2024/01/17 07:04:40;;;;;;;;;;;18.80;37.10;;;;;;5056660;28;19920;-53
2024/01/17 07:07:07;;;;;;;;;;;18.80;37.10;;;;;;5056779;28;19920;-52
2024/01/17 07:09:34;;;;;;;;;;;18.80;37.10;;;;;;5077227;28;19971;-54
2024/01/17 07:12:01;;;;;;;;;;;18.70;37.70;;;;;;5077502;28;19921;-52
2024/01/17 07:14:28;;;;;;;;;;;18.80;37.10;;;;;;5071860;28;19920;-56
2024/01/17 07:16:57;;;;;;;;;;;18.80;37.10;;;;;;5055513;28;19982;-56
2024/01/17 07:19:23;;;;;;;;;;;18.80;37.10;;;;;;5060239;28;19920;-55
2024/01/17 07:21:50;;;;;;;;;;;18.80;37.10;;;;;;5056387;28;20332;-51
2024/01/17 07:24:17;;;;;;;;;;;18.80;37.10;;;;;;5054526;28;19921;-55
2024/01/17 07:26:44;;;;;;;;;;;18.80;37.10;;;;;;5053991;28;19927;-55
2024/01/17 07:29:10;;;;;;;;;;;18.80;37.10;;;;;;5059154;28;19932;-56
2024/01/17 07:31:38;;;;;;;;;;;18.80;37.10;;;;;;5072425;28;20335;-57
2024/01/17 07:34:06;;;;;;;;;;;18.80;37.20;;;;;;5073240;28;19926;-54
2024/01/17 07:36:33;;;;;;;;;;;18.80;37.10;;;;;;5069513;28;19925;-52
2024/01/17 07:38:59;;;;;;;;;;;18.80;37.20;;;;;;5052043;28;19920;-50
2024/01/17 07:41:25;;;;;;;;;;;18.80;36.70;;;;;;5054339;28;19974;-53
2024/01/17 07:43:52;;;;;;;;;;;18.70;35.90;;;;;;5052018;28;20717;-48
2024/01/17 07:46:19;;;;;;;;;;;18.70;33.70;;;;;;5053913;28;20030;-56
2024/01/17 07:48:46;;;;;;;;;;;18.70;31.70;;;;;;5054612;28;19924;-49
2024/01/17 07:51:14;;;;;;;;;;;18.60;31.70;;;;;;5051865;28;19924;-53
2024/01/17 07:53:40;;;;;;;;;;;18.50;31.80;;;;;;5071070;28;20052;-54
2024/01/17 07:56:07;;;;;;;;;;;18.50;32.40;;;;;;5070858;28;19978;-54
2024/01/17 07:58:35;;;;;;;;;;;18.50;33.00;;;;;;5064250;28;19933;-54
2024/01/17 08:01:02;;;;;;;;;;;18.50;33.50;;;;;;5064490;28;19927;-59
2024/01/17 08:03:29;;;;;;;;;;;18.50;33.80;;;;;;5060086;28;19921;-58
2024/01/17 08:05:56;;;;;;;;;;;18.50;34.20;;;;;;5035024;28;19933;-54
2024/01/17 08:08:24;;;;;;;;;;;18.50;34.50;;;;;;5050561;28;20078;-58
2024/01/17 08:10:50;;;;;;;;;;;18.50;34.70;;;;;;5049166;28;19966;-52
2024/01/17 08:13:18;;;;;;;;;;;18.50;35.00;;;;;;5045213;28;19933;-57
2024/01/17 08:15:44;;;;;;;;;;;18.50;35.10;;;;;;5034788;28;20053;-59
2024/01/17 08:18:13;;;;;;;;;;;18.60;35.50;;;;;;5054427;28;19932;-57
2024/01/17 08:20:40;;;;;;;;;;;18.60;35.50;;;;;;5035282;28;19933;-56
2024/01/17 08:23:06;;;;;;;;;;;18.60;35.80;;;;;;5054229;28;19935;-59
2024/01/17 08:25:35;;;;;;;;;;;18.60;35.80;;;;;;5035905;28;19940;-54
2024/01/17 08:28:03;;;;;;;;;;;18.60;35.90;;;;;;5055745;28;19943;-57
2024/01/17 08:30:29;;;;;;;;;;;18.70;36.10;;;;;;5035382;28;20019;-59
2024/01/17 08:32:56;;;;;;;;;;;18.70;36.20;;;;;;5053939;28;19933;-56
2024/01/17 08:35:23;;;;;;;;;;;18.70;36.30;;;;;;5057083;28;19932;-57
2024/01/17 08:37:50;;;;;;;;;;;18.70;36.40;;;;;;5068953;28;19920;-56
2024/01/17 08:40:17;;;;;;;;;;;18.70;36.40;;;;;;5069462;28;19986;-54
2024/01/17 08:42:45;;;;;;;;;;;18.70;36.50;;;;;;5068349;28;19927;-54
2024/01/17 08:45:12;;;;;;;;;;;18.80;36.60;;;;;;5069630;28;19947;-54
2024/01/17 08:47:41;;;;;;;;;;;18.80;36.70;;;;;;5047624;28;19975;-55
2024/01/17 08:50:09;;;;;;;;;;;18.80;36.70;;;;;;5070026;28;19932;-56
2024/01/17 08:52:36;;;;;;;;;;;18.80;36.70;;;;;;5046604;28;19920;-55
2024/01/17 08:55:08;;;;;;;;;;;18.80;36.80;;;;;;5068350;28;19989;-54
2024/01/17 08:57:36;;;;;;;;;;;18.80;36.90;;;;;;5048286;28;19943;-57
2024/01/17 09:00:05;;;;;;;;;;;18.90;37.00;;;;;;5065168;28;19921;-56
2024/01/17 09:02:32;;;;;;;;;;;18.90;37.00;;;;;;5068058;28;19978;-55
2024/01/17 09:04:58;;;;;;;;;;;18.90;37.00;;;;;;5051410;28;19956;-54
2024/01/17 09:07:25;;;;;;;;;;;18.90;37.10;;;;;;5048426;28;19967;-53
2024/01/17 09:09:52;;;;;;;;;;;18.90;37.10;;;;;;5066701;28;19920;-58
2024/01/17 09:12:19;;;;;;;;;;;18.90;37.10;;;;;;5048367;28;19928;-58
2024/01/17 09:14:46;;;;;;;;;;;18.90;37.10;;;;;;5069042;28;20198;-58
2024/01/17 09:17:14;;;;;;;;;;;18.90;37.20;;;;;;5049040;28;19924;-56
2024/01/17 09:19:42;;;;;;;;;;;18.90;37.20;;;;;;5052592;28;19924;-55
2024/01/17 09:22:09;;;;;;;;;;;18.90;37.30;;;;;;5050841;28;19950;-58
2024/01/17 09:24:37;;;;;;;;;;;19.00;37.40;;;;;;5069910;28;19970;-58
2024/01/17 09:27:04;;;;;;;;;;;19.00;37.40;;;;;;5050338;28;19927;-58
2024/01/17 09:29:33;;;;;;;;;;;19.00;37.40;;;;;;5050928;28;19940;-55
2024/01/17 09:32:00;;;;;;;;;;;19.00;37.50;;;;;;5052225;28;19920;-58
2024/01/17 09:34:28;;;;;;;;;;;19.00;37.50;;;;;;5052877;28;19978;-57
2024/01/17 09:36:55;;;;;;;;;;;19.00;37.50;;;;;;5067090;28;19947;-52
2024/01/17 09:39:23;;;;;;;;;;;19.00;37.50;;;;;;5052649;28;20332;-54
2024/01/17 09:41:49;;;;;;;;;;;19.00;37.60;;;;;;5054482;28;20007;-55
2024/01/17 09:44:16;;;;;;;;;;;19.00;37.60;;;;;;5070598;28;19946;-53
2024/01/17 09:46:44;;;;;;;;;;;19.00;37.70;;;;;;5052398;28;19932;-54
2024/01/17 09:49:10;;;;;;;;;;;19.10;37.80;;;;;;5073749;28;19932;-57
2024/01/17 09:51:38;;;;;;;;;;;19.00;37.70;;;;;;5049891;28;19963;-55
2024/01/17 09:54:05;;;;;;;;;;;19.10;37.80;;;;;;5051374;28;19924;-57
2024/01/17 09:56:33;;;;;;;;;;;19.10;37.80;;;;;;5053873;28;19920;-58
2024/01/17 09:59:00;;;;;;;;;;;19.10;37.90;;;;;;5052735;28;19959;-58
2024/01/17 10:01:27;;;;;;;;;;;19.10;37.90;;;;;;5051395;28;20262;-56
2024/01/17 10:03:54;;;;;;;;;;;19.10;37.90;;;;;;5068772;28;20019;-53
2024/01/17 10:06:21;;;;;;;;;;;19.10;37.90;;;;;;5053854;28;19974;-53
2024/01/17 10:08:49;;;;;;;;;;;19.10;38.00;;;;;;5053275;28;19924;-55
2024/01/17 10:11:16;;;;;;;;;;;19.10;38.00;;;;;;5051384;28;19925;-54
2024/01/17 10:13:43;;;;;;;;;;;19.10;38.00;;;;;;5050950;28;20019;-55
2024/01/17 10:16:11;;;;;;;;;;;19.10;38.00;;;;;;5048733;28;19920;-54
2024/01/17 10:18:38;;;;;;;;;;;19.10;38.00;;;;;;5069011;28;19959;-54
2024/01/17 10:21:05;;;;;;;;;;;19.20;38.10;;;;;;5049552;28;19925;-57
2024/01/17 10:23:32;;;;;;;;;;;19.10;38.10;;;;;;5068650;28;19925;-54
2024/01/17 10:26:00;;;;;;;;;;;19.10;38.10;;;;;;5052613;28;19970;-55
2024/01/17 10:28:27;;;;;;;;;;;19.20;38.20;;;;;;5069247;28;19971;-55
2024/01/17 10:30:53;;;;;;;;;;;19.20;38.20;;;;;;5052306;28;19933;-52
2024/01/17 10:33:20;;;;;;;;;;;19.20;38.20;;;;;;5051799;28;19920;-55
2024/01/17 10:35:48;;;;;;;;;;;19.20;38.20;;;;;;5050689;28;20045;-55
2024/01/17 10:38:15;;;;;;;;;;;19.20;38.30;;;;;;5067349;28;19924;-55
2024/01/17 10:40:44;;;;;;;;;;;19.20;38.30;;;;;;5050735;28;19924;-53
2024/01/17 10:43:13;;;;;;;;;;;19.20;38.30;;;;;;5051913;28;20026;-55
2024/01/17 10:45:42;;;;;;;;;;;19.20;38.30;;;;;;5051009;28;19920;-53
2024/01/17 10:48:09;;;;;;;;;;;19.20;38.30;;;;;;5069583;28;20368;-57
2024/01/17 10:50:35;;;;;;;;;;;19.20;38.30;;;;;;5067438;28;20005;-57
2024/01/17 10:53:04;;;;;;;;;;;19.20;38.30;;;;;;5050352;28;19963;-53
2024/01/17 10:55:33;;;;;;;;;;;19.20;38.40;;;;;;5068285;28;19920;-56
2024/01/17 10:58:00;;;;;;;;;;;19.20;38.40;;;;;;5057289;28;19920;-50
2024/01/17 11:00:31;;;;;;;;;;;19.20;38.40;;;;;;5068674;28;20015;-56
2024/01/17 11:02:58;;;;;;;;;;;19.20;38.50;;;;;;5070445;28;19920;-54
2024/01/17 11:05:25;;;;;;;;;;;19.20;38.40;;;;;;5051990;28;19947;-53
2024/01/17 11:07:51;;;;;;;;;;;19.20;38.50;;;;;;5059302;28;19924;-59
2024/01/17 11:10:18;;;;;;;;;;;19.20;38.50;;;;;;5055716;28;19927;-54
2024/01/17 11:12:45;;;;;;;;;;;19.20;38.50;;;;;;5080106;28;19924;-54
2024/01/17 11:15:12;;;;;;;;;;;19.20;38.50;;;;;;5052520;28;19939;-56
2024/01/17 11:17:40;;;;;;;;;;;19.20;38.50;;;;;;5050306;28;19930;-58
2024/01/17 11:20:08;;;;;;;;;;;19.20;38.50;;;;;;5071039;28;19921;-55
2024/01/17 11:22:36;;;;;;;;;;;19.20;38.60;;;;;;5064840;28;20035;-54
2024/01/17 11:25:03;;;;;;;;;;;19.20;38.60;;;;;;5049599;28;19920;-57
2024/01/17 11:27:39;;;;;;;;;;;19.20;38.60;;;;;;5051653;28;19939;-54
2024/01/17 11:30:08;;;;;;;;;;;19.20;38.60;;;;;;5050471;28;19936;-57
2024/01/17 11:32:42;;;;;;;;;;;19.20;38.60;;;;;;5052560;28;19920;-52
2024/01/17 11:35:10;;;;;;;;;;;19.20;38.60;;;;;;5070200;28;19960;-52
2024/01/17 11:37:39;;;;;;;;;;;19.20;38.60;;;;;;5050132;28;19924;-56
2024/01/17 11:40:07;;;;;;;;;;;19.30;38.80;;;;;;5035797;28;20007;-57
2024/01/17 11:42:34;;;;;;;;;;;19.30;38.80;;;;;;5066616;28;19955;-58
2024/01/17 11:45:02;;;;;;;;;;;19.30;38.70;;;;;;5065547;28;19920;-54
2024/01/17 11:47:29;;;;;;;;;;;19.20;38.70;;;;;;5061628;28;20265;-56
2024/01/17 11:49:56;;;;;;;;;;;19.30;38.80;;;;;;5069573;28;19970;-57
2024/01/17 11:52:32;;;;;;;;;;;19.30;38.80;;;;;;5055184;28;19955;-55
2024/01/17 11:55:00;;;;;;;;;;;19.30;38.80;;;;;;5070910;28;19958;-52
2024/01/17 11:57:29;;;;;;;;;;;19.40;38.90;;;;;;5055852;28;19920;-55
2024/01/17 12:00:09;;;;;;;;;;;19.30;38.80;;;;;;5051176;28;19971;-57
2024/01/17 12:02:36;;;;;;;;;;;19.40;38.90;;;;;;5048672;28;20183;-54
2024/01/17 12:05:04;;;;;;;;;;;19.40;39.00;;;;;;5052890;28;19954;-54
2024/01/17 12:07:36;;;;;;;;;;;19.40;39.00;;;;;;5046328;28;19986;-55
2024/01/17 12:10:07;;;;;;;;;;;19.40;38.90;;;;;;5070270;28;19932;-56
2024/01/17 12:12:34;;;;;;;;;;;19.40;39.50;;;;;;5054214;28;19924;-53
2024/01/17 12:15:01;;;;;;;;;;;19.50;39.00;;;;;;5058670;28;19970;-56
2024/01/17 12:17:28;;;;;;;;;;;19.50;39.00;;;;;;5052025;28;19921;-54
2024/01/17 12:19:54;;;;;;;;;;;19.50;39.00;;;;;;5053591;28;19943;-53
2024/01/17 12:22:21;;;;;;;;;;;19.50;39.00;;;;;;5070688;28;19928;-51
2024/01/17 12:24:49;;;;;;;;;;;19.50;39.10;;;;;;5053868;28;19924;-50
2024/01/17 12:27:16;;;;;;;;;;;19.50;39.10;;;;;;5053187;28;19936;-50
2024/01/17 12:29:45;;;;;;;;;;;19.60;39.30;;;;;;5071055;28;20268;-49
2024/01/17 12:32:11;;;;;;;;;;;19.60;39.30;;;;;;5051978;28;19972;-49
2024/01/17 12:34:38;;;;;;;;;;;19.60;39.30;;;;;;5070564;28;19924;-53
2024/01/17 12:37:05;;;;;;;;;;;19.60;39.30;;;;;;5069750;28;19928;-54
2024/01/17 12:39:34;;;;;;;;;;;19.60;39.30;;;;;;5069854;28;19929;-54
2024/01/17 12:42:03;;;;;;;;;;;19.60;39.30;;;;;;5046068;28;19933;-54
2024/01/17 12:44:31;;;;;;;;;;;19.60;39.30;;;;;;5058512;28;19920;-54
2024/01/17 12:46:57;;;;;;;;;;;19.60;39.30;;;;;;5070842;28;19974;-53
2024/01/17 12:49:25;;;;;;;;;;;19.70;39.40;;;;;;5069822;28;19920;-55
2024/01/17 12:51:52;;;;;;;;;;;19.70;39.40;;;;;;5064836;28;19920;-57
2024/01/17 12:54:19;;;;;;;;;;;19.70;39.50;;;;;;5050064;28;19936;-51
2024/01/17 12:56:46;;;;;;;;;;;19.70;39.50;;;;;;5066445;28;19920;-54
2024/01/17 12:59:15;;;;;;;;;;;19.70;39.50;;;;;;5053113;28;19927;-55
2024/01/17 13:01:42;;;;;;;;;;;19.70;39.50;;;;;;5055343;28;20035;-54
2024/01/17 13:04:09;;;;;;;;;;;19.70;39.50;;;;;;5064974;28;19939;-55
2024/01/17 13:06:43;;;;;;;;;;;19.70;39.50;;;;;;5069672;28;19934;-56
2024/01/17 13:09:14;;;;;;;;;;;19.70;40.20;;;;;;5069403;28;19921;-53
2024/01/17 13:11:40;;;;;;;;;;;19.70;39.60;;;;;;5050849;28;19932;-52
2024/01/17 13:14:08;;;;;;;;;;;19.70;39.60;;;;;;5058794;28;19931;-57
2024/01/17 13:16:36;;;;;;;;;;;19.70;39.60;;;;;;5055194;28;19928;-48
2024/01/17 13:19:03;;;;;;;;;;;19.70;39.60;;;;;;5053684;28;19991;-54
2024/01/17 13:21:29;;;;;;;;;;;19.70;39.60;;;;;;5048667;28;19925;-57
2024/01/17 13:23:56;;;;;;;;;;;19.70;39.60;;;;;;5071341;28;19921;-56
2024/01/17 13:26:23;;;;;;;;;;;19.70;39.70;;;;;;5052565;28;19920;-53
2024/01/17 13:28:49;;;;;;;;;;;19.70;39.70;;;;;;5069830;28;19943;-55
2024/01/17 13:31:16;;;;;;;;;;;19.70;39.70;;;;;;5049338;28;20194;-54
2024/01/17 13:33:44;;;;;;;;;;;19.70;39.80;;;;;;5052725;28;19925;-53
2024/01/17 13:36:11;;;;;;;;;;;19.70;39.80;;;;;;5048985;28;20005;-53
2024/01/17 13:38:39;;;;;;;;;;;19.70;39.80;;;;;;5049439;28;19970;-50
2024/01/17 13:41:06;;;;;;;;;;;19.70;39.80;;;;;;5049017;28;19924;-59
2024/01/17 13:43:33;;;;;;;;;;;19.70;39.80;;;;;;5055486;28;19924;-56
2024/01/17 13:45:59;;;;;;;;;;;19.70;39.80;;;;;;5051704;28;19948;-55
2024/01/17 13:48:26;;;;;;;;;;;19.70;39.80;;;;;;5069578;28;19925;-51
2024/01/17 13:50:54;;;;;;;;;;;19.70;39.90;;;;;;5052366;28;19928;-54
2024/01/17 13:53:31;;;;;;;;;;;19.70;39.90;;;;;;5052109;28;19920;-55
2024/01/17 13:55:58;;;;;;;;;;;19.70;39.90;;;;;;5049876;28;19953;-53
2024/01/17 13:58:24;;;;;;;;;;;19.70;39.90;;;;;;5047426;28;19959;-54
2024/01/17 14:00:55;;;;;;;;;;;19.70;32.30;;;;;;5059329;28;19921;-52
2024/01/17 14:03:22;;;;;;;;;;;19.50;28.30;;;;;;5067858;28;19924;-57
2024/01/17 14:05:48;;;;;;;;;;;19.30;30.00;;;;;;5050176;28;19925;-53
2024/01/17 14:08:17;;;;;;;;;;;19.20;31.80;;;;;;5066235;28;19966;-54
2024/01/17 14:10:43;;;;;;;;;;;19.20;33.10;;;;;;5068468;28;20044;-50
2024/01/17 14:13:13;;;;;;;;;;;19.10;34.00;;;;;;5068774;28;19925;-53
2024/01/17 14:15:41;;;;;;;;;;;19.10;34.80;;;;;;5064502;28;19970;-55